Terminal Aerodrome Forecast
Issued by NWS Dodge City, KS

Home | Current Version | Previous Version | Graphics & Text | Print | Product List | Glossary Off
Versions: 1 2 3 4 5 6 7 8 9 10 11 12 13 14 15 16 17 18 19 20 21

000
FTUS43 KDDC 222320
TAFDDC
TAF
KDDC 222320Z 2300/2324 32011KT P6SM SKC
     FM230600 30013KT P6SM SCT100
     FM231600 33030G40KT P6SM OVC025=

USA.gov is the U.S. government's official web portal to all federal, state and local government web resources and services.